Terminal Aerodrome Forecast
Issued by NWS Sioux Falls, SD

Home | Current Version | Previous Version | Text Only | Print | Product List | Glossary On
Versions: 1 2 3 4 5 6 7 8 9 10 11 12 13 14
000
FTUS43 KFSD 180937 AAD
TAFFSD
TAF AMD
KFSD 180937Z 1810/1906 35011KT 1/2SM SN OVC006
     FM181500 35013G21KT 1 1/2SM -SN OVC008
     FM182000 34013KT 3SM -RASN OVC008
     FM182100 33009KT P6SM OVC010=

USA.gov is the U.S. government's official web portal to all federal, state and local government web resources and services.